createdAt,value
2022-08-20T00:02:15.357Z,15.00
2022-08-20T00:04:44.061Z,15.20
2022-08-20T00:07:14.030Z,16.53
2022-08-20T00:09:43.079Z,16.77
2022-08-20T00:12:12.286Z,14.80
2022-08-20T00:14:40.846Z,17.97
2022-08-20T00:17:09.465Z,15.03
2022-08-20T00:19:37.900Z,17.67
2022-08-20T00:22:06.235Z,16.80
2022-08-20T00:24:36.075Z,15.03
2022-08-20T00:27:04.549Z,19.30
2022-08-20T00:29:32.933Z,16.63
2022-08-20T00:32:01.445Z,17.00
2022-08-20T00:34:30.274Z,15.20
2022-08-20T00:36:58.603Z,18.07
2022-08-20T00:39:27.130Z,18.80
2022-08-20T00:41:56.970Z,18.17
2022-08-20T00:44:25.513Z,17.20
2022-08-20T00:46:54.344Z,17.53
2022-08-20T00:49:24.934Z,15.10
2022-08-20T00:51:55.779Z,16.23
2022-08-20T00:54:25.686Z,17.87
2022-08-20T00:56:57.254Z,20.57
2022-08-20T00:59:28.745Z,15.47
2022-08-20T01:01:58.037Z,15.93
2022-08-20T01:04:27.261Z,14.47
2022-08-20T01:06:55.666Z,16.17
2022-08-20T01:09:50.082Z,16.77
2022-08-20T01:12:13.774Z,14.53
2022-08-20T01:14:46.580Z,16.80
2022-08-20T01:17:17.841Z,17.73
2022-08-20T01:19:48.513Z,15.47
2022-08-20T01:22:33.680Z,15.67
2022-08-20T01:25:06.151Z,15.37
2022-08-20T01:27:42.671Z,15.93
2022-08-20T01:30:11.926Z,16.87
2022-08-20T01:32:40.482Z,14.63
2022-08-20T01:35:10.238Z,15.93
2022-08-20T01:37:38.577Z,16.93
2022-08-20T01:40:09.842Z,15.57
2022-08-20T01:42:52.825Z,18.17
2022-08-20T01:45:30.813Z,17.43
2022-08-20T01:47:59.781Z,16.37
2022-08-20T01:50:30.890Z,16.97
2022-08-20T01:53:01.168Z,14.67
2022-08-20T01:55:29.502Z,14.20
2022-08-20T01:57:59.585Z,15.20
2022-08-20T02:00:29.635Z,13.07
2022-08-20T02:02:57.950Z,15.40
2022-08-20T02:05:29.871Z,20.57
2022-08-20T02:07:59.478Z,12.47
2022-08-20T02:10:27.983Z,13.30
2022-08-20T02:13:01.506Z,13.70
2022-08-20T02:15:35.039Z,14.97
2022-08-20T02:18:08.905Z,14.93
2022-08-20T02:20:38.161Z,15.03
2022-08-20T02:23:07.130Z,13.43
2022-08-20T02:25:37.497Z,14.43
2022-08-20T02:28:09.319Z,14.57
2022-08-20T02:30:39.569Z,16.77
2022-08-20T02:33:10.317Z,13.50
2022-08-20T02:35:39.528Z,13.53
2022-08-20T02:38:08.338Z,16.07
2022-08-20T02:40:37.736Z,14.10
2022-08-20T02:43:07.754Z,13.27
2022-08-20T02:45:37.226Z,13.70
2022-08-20T02:48:06.462Z,13.70
2022-08-20T02:50:34.813Z,15.90
2022-08-20T02:53:03.267Z,14.37
2022-08-20T02:55:31.815Z,13.67
2022-08-20T02:58:01.144Z,16.00
2022-08-20T03:00:38.093Z,12.17
2022-08-20T03:03:08.204Z,13.57
2022-08-20T03:05:36.525Z,15.10
2022-08-20T03:08:08.420Z,12.33
2022-08-20T03:10:38.068Z,16.60
2022-08-20T03:13:11.283Z,12.30
2022-08-20T03:15:42.738Z,13.57
2022-08-20T03:18:11.251Z,11.57
2022-08-20T03:20:39.685Z,12.00
2022-08-20T03:23:08.245Z,9.73
2022-08-20T03:25:36.801Z,11.63
2022-08-20T03:28:05.795Z,9.60
2022-08-20T03:30:34.473Z,8.33
2022-08-20T03:33:04.142Z,8.23
2022-08-20T03:35:33.071Z,11.10
2022-08-20T03:38:01.555Z,8.43
2022-08-20T03:40:31.333Z,8.77
2022-08-20T03:42:59.692Z,9.07
2022-08-20T03:45:28.637Z,9.07
2022-08-20T03:47:58.080Z,10.10
2022-08-20T03:50:29.766Z,10.70
2022-08-20T03:52:58.169Z,10.07
2022-08-20T03:55:26.806Z,9.20
2022-08-20T03:57:56.953Z,9.77
2022-08-20T04:00:27.010Z,9.77
2022-08-20T04:02:57.417Z,13.10
2022-08-20T04:05:25.778Z,9.00
2022-08-20T04:08:03.066Z,9.23
2022-08-20T04:10:32.202Z,8.30
2022-08-20T04:13:00.803Z,9.10
2022-08-20T04:15:29.985Z,9.00
2022-08-20T04:17:59.901Z,10.30
2022-08-20T04:20:28.992Z,8.60
2022-08-20T04:22:59.720Z,9.50
2022-08-20T04:25:29.695Z,9.30
2022-08-20T04:27:59.107Z,9.87
2022-08-20T04:30:28.027Z,8.67
2022-08-20T04:32:56.469Z,9.40
2022-08-20T04:35:25.670Z,10.37
2022-08-20T04:38:01.450Z,7.50
2022-08-20T04:40:47.979Z,9.90
2022-08-20T04:43:16.666Z,7.97
2022-08-20T04:45:46.485Z,7.67
2022-08-20T04:48:15.436Z,8.33
2022-08-20T04:50:45.320Z,7.23
2022-08-20T04:53:19.835Z,8.10
2022-08-20T04:55:50.079Z,8.37
2022-08-20T04:58:19.645Z,6.40
2022-08-20T05:00:48.985Z,6.43
2022-08-20T05:03:17.424Z,6.27
2022-08-20T05:05:46.702Z,8.13
2022-08-20T05:08:20.149Z,5.80
2022-08-20T05:10:49.345Z,5.83
2022-08-20T05:13:25.350Z,5.63
2022-08-20T05:15:56.318Z,6.97
2022-08-20T05:18:26.427Z,5.13
2022-08-20T05:21:01.609Z,5.87
2022-08-20T05:23:31.707Z,4.77
2022-08-20T05:26:00.006Z,4.03
2022-08-20T05:28:32.922Z,6.30
2022-08-20T05:31:07.261Z,4.00
2022-08-20T05:33:36.117Z,4.87
2022-08-20T05:36:06.452Z,3.87
2022-08-20T05:38:37.685Z,3.67
2022-08-20T05:41:06.938Z,3.63
2022-08-20T05:43:35.422Z,3.90
2022-08-20T05:46:03.865Z,3.43
2022-08-20T05:48:36.030Z,3.10
2022-08-20T05:51:04.591Z,3.13
2022-08-20T05:53:32.897Z,3.07
2022-08-20T05:56:02.560Z,3.10
2022-08-20T05:58:32.993Z,3.60
2022-08-20T06:01:01.450Z,2.93
2022-08-20T06:03:47.417Z,6.33
2022-08-20T06:06:20.681Z,2.33
2022-08-20T06:09:04.551Z,2.90
2022-08-20T06:11:37.165Z,3.07
2022-08-20T06:14:06.055Z,3.17
2022-08-20T06:16:34.510Z,2.77
2022-08-20T06:19:05.796Z,2.60
2022-08-20T06:21:34.320Z,2.90
2022-08-20T06:24:02.926Z,2.50
2022-08-20T06:26:33.743Z,2.23
2022-08-20T06:29:03.579Z,6.67
2022-08-20T06:31:32.031Z,4.63
2022-08-20T06:34:00.337Z,5.33
2022-08-20T06:36:28.754Z,2.17
2022-08-20T06:38:58.449Z,2.10
2022-08-20T06:41:36.147Z,2.10
2022-08-20T06:44:07.616Z,2.40
2022-08-20T06:46:36.346Z,1.80
2022-08-20T06:49:04.831Z,1.90
2022-08-20T06:51:34.388Z,1.70
2022-08-20T06:54:02.693Z,1.60
2022-08-20T06:56:31.097Z,1.30
2022-08-20T06:58:59.662Z,1.57
2022-08-20T07:01:29.672Z,4.07
2022-08-20T07:03:59.666Z,1.20
2022-08-20T07:06:28.541Z,1.53
2022-08-20T07:08:57.510Z,1.37
2022-08-20T07:11:28.450Z,1.30
2022-08-20T07:13:58.135Z,1.47
2022-08-20T07:16:26.862Z,1.10
2022-08-20T07:18:56.783Z,2.30
2022-08-20T07:21:25.681Z,1.80
2022-08-20T07:23:54.410Z,1.60
2022-08-20T07:26:22.875Z,1.20
2022-08-20T07:28:51.209Z,1.10
2022-08-20T07:31:37.285Z,5.20
2022-08-20T07:34:07.157Z,0.87
2022-08-20T07:36:35.714Z,3.97
2022-08-20T07:39:05.657Z,1.37
2022-08-20T07:41:34.837Z,1.53
2022-08-20T07:44:03.566Z,2.17
2022-08-20T07:46:32.510Z,1.90
2022-08-20T07:49:00.902Z,1.80
2022-08-20T07:51:30.650Z,4.13
2022-08-20T07:54:00.249Z,2.10
2022-08-20T07:56:28.563Z,1.97
2022-08-20T07:58:59.267Z,1.00
2022-08-20T08:01:30.478Z,1.60
2022-08-20T08:03:59.345Z,0.93
2022-08-20T08:06:31.033Z,1.00
2022-08-20T08:09:03.666Z,0.90
2022-08-20T08:11:33.186Z,0.90
2022-08-20T08:14:01.836Z,0.90
2022-08-20T08:16:32.688Z,1.00
2022-08-20T08:19:02.270Z,1.43
2022-08-20T08:21:31.838Z,1.00
2022-08-20T08:24:00.234Z,1.57
2022-08-20T08:26:29.986Z,1.50
2022-08-20T08:28:58.663Z,1.20
2022-08-20T08:31:27.301Z,1.80
2022-08-20T08:33:55.770Z,2.43
2022-08-20T08:36:27.114Z,1.27
2022-08-20T08:38:56.774Z,2.47
2022-08-20T08:41:29.287Z,1.00
2022-08-20T08:44:09.629Z,1.30
2022-08-20T08:46:41.017Z,1.40
2022-08-20T08:49:11.666Z,1.60
2022-08-20T08:51:42.427Z,1.10
2022-08-20T08:54:10.815Z,1.30
2022-08-20T08:56:39.293Z,1.00
2022-08-20T08:59:09.777Z,1.33
2022-08-20T09:01:54.849Z,1.10
2022-08-20T09:04:25.577Z,1.20
2022-08-20T09:06:54.652Z,1.10
2022-08-20T09:09:24.292Z,1.30
2022-08-20T09:11:54.761Z,1.20
2022-08-20T09:14:25.524Z,1.20
2022-08-20T09:16:54.001Z,1.13
2022-08-20T09:19:22.389Z,1.10
2022-08-20T09:21:50.973Z,2.37
2022-08-20T09:24:19.442Z,2.70
2022-08-20T09:26:47.953Z,1.20
2022-08-20T09:29:16.478Z,0.90
2022-08-20T09:31:46.710Z,1.40
2022-08-20T09:34:15.331Z,1.30
2022-08-20T09:36:43.798Z,1.00
2022-08-20T09:39:12.651Z,1.23
2022-08-20T09:41:41.460Z,1.20
2022-08-20T09:44:10.085Z,1.20
2022-08-20T09:46:38.594Z,1.10
2022-08-20T09:49:08.957Z,1.20
2022-08-20T09:51:39.506Z,1.10
2022-08-20T09:54:08.267Z,0.90
2022-08-20T09:56:36.925Z,1.00
2022-08-20T09:59:05.757Z,1.00
2022-08-20T10:01:34.991Z,1.30
2022-08-20T10:04:03.369Z,2.53
2022-08-20T10:06:37.615Z,1.20
2022-08-20T10:09:06.296Z,1.20
2022-08-20T10:11:35.022Z,1.33
2022-08-20T10:14:03.364Z,1.10
2022-08-20T10:16:31.697Z,1.10
2022-08-20T10:19:00.753Z,1.47
2022-08-20T10:21:29.076Z,4.20
2022-08-20T10:23:58.781Z,1.10
2022-08-20T10:26:27.506Z,1.00
2022-08-20T10:28:56.021Z,1.20
2022-08-20T10:31:24.325Z,1.03
2022-08-20T10:33:52.819Z,1.42
2022-08-20T10:36:21.244Z,1.30
2022-08-20T10:38:49.601Z,3.20
2022-08-20T10:41:20.022Z,1.20
2022-08-20T10:43:48.318Z,2.08
2022-08-20T10:46:16.629Z,0.90
2022-08-20T10:48:45.645Z,2.95
2022-08-20T10:51:13.967Z,2.58
2022-08-20T10:53:42.554Z,1.13
2022-08-20T10:56:15.373Z,2.67
2022-08-20T10:58:45.538Z,2.20
2022-08-20T11:01:32.869Z,1.07
2022-08-20T11:04:02.392Z,2.30
2022-08-20T11:06:30.889Z,1.00
2022-08-20T11:08:59.180Z,1.17
2022-08-20T11:11:27.486Z,0.93
2022-08-20T11:13:57.385Z,1.00
2022-08-20T11:16:27.218Z,1.17
2022-08-20T11:18:55.511Z,1.20
2022-08-20T11:21:24.042Z,2.20
2022-08-20T11:23:52.599Z,0.93
2022-08-20T11:26:22.879Z,2.55
2022-08-20T11:28:51.694Z,0.93
2022-08-20T11:31:21.337Z,1.20
2022-08-20T11:33:49.653Z,1.10
2022-08-20T11:36:18.194Z,2.28
2022-08-20T11:38:46.646Z,1.80
2022-08-20T11:41:15.113Z,2.05
2022-08-20T11:43:59.490Z,3.70
2022-08-20T11:46:33.968Z,1.38
2022-08-20T11:49:03.013Z,2.35
2022-08-20T11:51:31.366Z,1.13
2022-08-20T11:54:17.517Z,2.20
2022-08-20T11:56:46.189Z,0.87
2022-08-20T11:59:14.614Z,1.00
2022-08-20T12:02:02.459Z,1.48
2022-08-20T12:04:33.575Z,2.60
2022-08-20T12:07:10.199Z,1.13
2022-08-20T12:09:40.017Z,1.10
2022-08-20T12:12:11.854Z,1.93
2022-08-20T12:14:42.618Z,2.43
2022-08-20T12:17:13.603Z,0.97
2022-08-20T12:19:42.961Z,1.50
2022-08-20T12:22:20.378Z,0.88
2022-08-20T12:24:53.697Z,3.40
2022-08-20T12:27:23.169Z,3.65
2022-08-20T12:29:53.390Z,0.98
2022-08-20T12:32:23.914Z,5.20
2022-08-20T12:34:52.233Z,1.10
2022-08-20T12:37:21.190Z,0.80
2022-08-20T12:39:50.718Z,2.60
2022-08-20T12:42:19.073Z,1.40
2022-08-20T12:44:47.390Z,3.05
2022-08-20T12:47:18.266Z,1.77
2022-08-20T12:49:48.962Z,1.38
2022-08-20T12:52:18.306Z,1.60
2022-08-20T12:54:46.978Z,2.67
2022-08-20T12:57:16.763Z,3.00
2022-08-20T12:59:45.169Z,2.67
2022-08-20T13:02:13.807Z,1.33
2022-08-20T13:04:42.779Z,3.75
2022-08-20T13:07:12.972Z,3.10
2022-08-20T13:09:41.490Z,2.70
2022-08-20T13:12:10.049Z,2.03
2022-08-20T13:14:38.665Z,2.75
2022-08-20T13:17:07.171Z,1.88
2022-08-20T13:19:36.814Z,1.25
2022-08-20T13:22:05.820Z,4.50
2022-08-20T13:24:35.647Z,2.33
2022-08-20T13:27:07.723Z,4.15
2022-08-20T13:29:36.477Z,3.15
2022-08-20T13:32:05.304Z,1.30
2022-08-20T13:34:33.875Z,4.75
2022-08-20T13:37:02.549Z,3.30
2022-08-20T13:39:30.845Z,3.15
2022-08-20T13:42:00.643Z,1.77
2022-08-20T13:44:32.987Z,5.63
2022-08-20T13:47:02.001Z,3.20
2022-08-20T13:49:32.770Z,5.88
2022-08-20T13:52:02.457Z,1.50
2022-08-20T13:54:31.737Z,3.13
2022-08-20T13:57:07.067Z,5.97
2022-08-20T13:59:37.255Z,2.40
2022-08-20T14:02:07.445Z,3.70
2022-08-20T14:04:35.958Z,4.65
2022-08-20T14:07:10.742Z,3.92
2022-08-20T14:09:40.308Z,3.03
2022-08-20T14:12:10.545Z,6.20
2022-08-20T14:14:39.090Z,3.00
2022-08-20T14:17:17.550Z,4.83
2022-08-20T14:19:45.945Z,3.90
2022-08-20T14:22:14.318Z,4.20
2022-08-20T14:24:42.818Z,4.30
2022-08-20T14:27:12.726Z,2.90
2022-08-20T14:29:42.173Z,3.57
2022-08-20T14:32:10.709Z,3.00
2022-08-20T14:34:40.034Z,2.37
2022-08-20T14:37:12.265Z,4.43
2022-08-20T14:39:40.909Z,6.50
2022-08-20T14:42:09.450Z,3.00
2022-08-20T14:44:39.162Z,5.37
2022-08-20T14:47:14.950Z,2.67
2022-08-20T14:49:43.574Z,5.97
2022-08-20T14:52:11.945Z,2.80
2022-08-20T14:54:40.494Z,3.13
2022-08-20T14:57:13.146Z,3.40
2022-08-20T14:59:43.814Z,2.75
2022-08-20T15:02:13.471Z,2.13
2022-08-20T15:04:42.010Z,5.90
2022-08-20T15:07:16.419Z,2.08
2022-08-20T15:09:44.901Z,2.33
2022-08-20T15:12:13.294Z,1.63
2022-08-20T15:14:43.086Z,4.00
2022-08-20T15:17:19.771Z,1.83
2022-08-20T15:19:48.138Z,1.35
2022-08-20T15:22:16.583Z,3.05
2022-08-20T15:24:45.260Z,1.55
2022-08-20T15:27:21.838Z,4.15
2022-08-20T15:29:53.014Z,3.28
2022-08-20T15:32:21.442Z,4.30
2022-08-20T15:34:49.794Z,3.10
2022-08-20T15:37:20.927Z,4.38
2022-08-20T15:39:50.004Z,4.00
2022-08-20T15:42:18.633Z,1.80
2022-08-20T15:44:47.581Z,2.90
2022-08-20T15:47:25.631Z,5.25
2022-08-20T15:49:57.252Z,2.28
2022-08-20T15:52:26.876Z,4.25
2022-08-20T15:54:56.380Z,2.45
2022-08-20T15:57:33.694Z,2.83
2022-08-20T16:00:09.788Z,3.83
2022-08-20T16:02:56.929Z,4.05
2022-08-20T16:05:34.691Z,2.78
2022-08-20T16:08:09.033Z,1.85
2022-08-20T16:10:42.424Z,5.72
2022-08-20T16:13:13.973Z,4.60
2022-08-20T16:15:49.407Z,2.60
2022-08-20T16:18:20.591Z,4.55
2022-08-20T16:20:51.761Z,3.40
2022-08-20T16:23:25.505Z,3.13
2022-08-20T16:25:59.571Z,6.20
2022-08-20T16:28:29.297Z,4.40
2022-08-20T16:31:01.321Z,4.80
2022-08-20T16:33:32.502Z,2.33
2022-08-20T16:36:05.039Z,7.23
2022-08-20T16:38:37.363Z,5.30
2022-08-20T16:41:10.405Z,9.03
2022-08-20T16:43:40.974Z,6.57
2022-08-20T16:46:14.483Z,6.57
2022-08-20T16:48:45.590Z,7.57
2022-08-20T16:51:18.851Z,10.43
2022-08-20T16:53:47.342Z,6.47
2022-08-20T16:56:15.975Z,7.47
2022-08-20T16:58:46.626Z,7.40
2022-08-20T17:01:16.194Z,6.90
2022-08-20T17:03:51.257Z,4.80
2022-08-20T17:06:27.053Z,8.23
2022-08-20T17:08:55.384Z,8.60
2022-08-20T17:11:25.378Z,10.00
2022-08-20T17:14:03.809Z,8.23
2022-08-20T17:16:34.474Z,5.63
2022-08-20T17:19:09.417Z,6.83
2022-08-20T17:21:39.626Z,7.23
2022-08-20T17:24:16.872Z,12.60
2022-08-20T17:26:47.321Z,7.67
2022-08-20T17:29:17.111Z,7.73
2022-08-20T17:31:47.939Z,7.87
2022-08-20T17:34:18.071Z,3.47
2022-08-20T17:36:51.626Z,4.00
2022-08-20T17:39:20.899Z,7.27
2022-08-20T17:41:49.947Z,8.03
2022-08-20T17:44:22.165Z,7.97
2022-08-20T17:46:51.013Z,7.57
2022-08-20T17:49:20.646Z,10.57
2022-08-20T17:51:50.270Z,13.03
2022-08-20T17:54:23.067Z,7.70
2022-08-20T17:56:54.321Z,7.70
2022-08-20T17:59:59.944Z,7.60
2022-08-20T18:02:15.284Z,9.47
2022-08-20T18:04:44.075Z,4.77
2022-08-20T18:07:19.014Z,7.50
2022-08-20T18:09:51.986Z,10.93
2022-08-20T18:12:34.027Z,10.43
2022-08-20T18:15:07.852Z,12.73
2022-08-20T18:17:47.090Z,10.40
2022-08-20T18:20:25.760Z,6.93
2022-08-20T18:22:56.486Z,6.50
2022-08-20T18:25:30.303Z,9.87
2022-08-20T18:28:01.374Z,11.17
2022-08-20T18:30:29.822Z,9.23
2022-08-20T18:33:04.893Z,9.63
2022-08-20T18:35:34.705Z,10.33
2022-08-20T18:38:12.759Z,9.80
2022-08-20T18:40:42.495Z,7.63
2022-08-20T18:43:14.606Z,8.43
2022-08-20T18:45:43.451Z,8.93
2022-08-20T18:48:21.726Z,13.07
2022-08-20T18:50:53.322Z,9.10
2022-08-20T18:53:29.177Z,8.13
2022-08-20T18:56:05.848Z,11.47
2022-08-20T18:58:38.574Z,11.87
2022-08-20T19:01:14.363Z,10.80
2022-08-20T19:03:46.178Z,14.83
2022-08-20T19:06:26.625Z,8.67
2022-08-20T19:08:57.074Z,8.80
2022-08-20T19:11:44.610Z,11.77
2022-08-20T19:14:22.054Z,8.10
2022-08-20T19:16:52.158Z,8.13
2022-08-20T19:19:21.758Z,10.50
2022-08-20T19:21:50.701Z,11.23
2022-08-20T19:24:21.354Z,15.97
2022-08-20T19:26:52.054Z,9.27
2022-08-20T19:29:24.637Z,12.70
2022-08-20T19:31:58.898Z,10.63
2022-08-20T19:34:27.737Z,16.00
2022-08-20T19:36:57.481Z,15.33
2022-08-20T19:39:26.671Z,15.87
2022-08-20T19:41:57.573Z,17.77
2022-08-20T19:44:32.279Z,9.53
2022-08-20T19:47:01.913Z,8.93
2022-08-20T19:49:31.611Z,11.27
2022-08-20T19:52:08.961Z,11.43
2022-08-20T19:54:45.222Z,15.33
2022-08-20T19:57:13.726Z,11.80
2022-08-20T19:59:52.578Z,14.77
2022-08-20T20:02:21.648Z,9.97
2022-08-20T20:04:55.575Z,17.43
2022-08-20T20:07:27.584Z,11.57
2022-08-20T20:09:57.203Z,15.83
2022-08-20T20:12:25.837Z,12.90
2022-08-20T20:14:56.825Z,12.43
2022-08-20T20:17:26.449Z,12.53
2022-08-20T20:19:56.872Z,12.17
2022-08-20T20:22:27.103Z,12.63
2022-08-20T20:25:01.044Z,7.90
2022-08-20T20:27:29.878Z,7.77
2022-08-20T20:30:03.386Z,13.60
2022-08-20T20:32:34.036Z,4.93
2022-08-20T20:35:03.729Z,11.90
2022-08-20T20:37:50.836Z,11.00
2022-08-20T20:40:25.363Z,12.60
2022-08-20T20:43:02.040Z,10.97
2022-08-20T20:45:33.669Z,11.57
2022-08-20T20:48:03.524Z,9.10
2022-08-20T20:50:34.653Z,12.70
2022-08-20T20:53:03.325Z,13.03
2022-08-20T20:55:32.826Z,11.40
2022-08-20T20:58:02.542Z,16.53
2022-08-20T21:00:33.814Z,14.13
2022-08-20T21:03:02.870Z,9.80
2022-08-20T21:05:33.675Z,6.97
2022-08-20T21:08:03.008Z,11.20
2022-08-20T21:10:32.839Z,14.60
2022-08-20T21:13:04.015Z,11.53
2022-08-20T21:15:34.734Z,12.60
2022-08-20T21:18:03.886Z,11.93
2022-08-20T21:20:32.622Z,14.27
2022-08-20T21:23:01.244Z,10.03
2022-08-20T21:25:30.733Z,12.80
2022-08-20T21:27:59.185Z,10.07
2022-08-20T21:30:27.665Z,11.27
2022-08-20T21:32:57.613Z,15.50
2022-08-20T21:35:26.110Z,9.17
2022-08-20T21:37:54.431Z,13.37
2022-08-20T21:40:22.899Z,10.63
2022-08-20T21:42:57.131Z,7.93
2022-08-20T21:45:28.351Z,9.27
2022-08-20T21:47:58.421Z,11.17
2022-08-20T21:50:27.170Z,12.50
2022-08-20T21:52:59.986Z,12.10
2022-08-20T21:55:29.325Z,12.77
2022-08-20T21:57:57.651Z,16.17
2022-08-20T22:00:41.009Z,9.30
2022-08-20T22:03:13.293Z,9.37
2022-08-20T22:05:42.813Z,7.73
2022-08-20T22:08:12.054Z,11.47
2022-08-20T22:10:40.502Z,16.37
2022-08-20T22:13:08.954Z,9.90
2022-08-20T22:15:39.742Z,14.33
2022-08-20T22:18:08.125Z,12.03
2022-08-20T22:20:38.038Z,8.83
2022-08-20T22:23:07.225Z,8.73
2022-08-20T22:25:35.885Z,11.93
2022-08-20T22:28:04.355Z,12.17
2022-08-20T22:30:33.134Z,11.03
2022-08-20T22:33:03.592Z,13.67
2022-08-20T22:35:32.873Z,17.20
2022-08-20T22:38:02.730Z,14.03
2022-08-20T22:40:31.021Z,12.30
2022-08-20T22:42:59.635Z,13.00
2022-08-20T22:45:28.269Z,21.50
2022-08-20T22:47:58.761Z,13.13
2022-08-20T22:50:27.249Z,16.23
2022-08-20T22:52:56.065Z,15.17
2022-08-20T22:55:25.824Z,9.43
2022-08-20T22:57:55.441Z,10.90
2022-08-20T23:00:25.894Z,9.70
2022-08-20T23:02:58.748Z,16.70
2022-08-20T23:05:28.518Z,13.53
2022-08-20T23:07:57.793Z,10.17
2022-08-20T23:10:28.275Z,15.97
2022-08-20T23:12:57.309Z,14.67
2022-08-20T23:15:26.065Z,14.90
2022-08-20T23:17:55.613Z,12.53
2022-08-20T23:20:24.321Z,13.17
2022-08-20T23:22:54.714Z,14.83
2022-08-20T23:25:26.832Z,21.03
2022-08-20T23:28:03.658Z,15.60
2022-08-20T23:30:33.522Z,12.53
2022-08-20T23:33:02.289Z,19.10
2022-08-20T23:35:32.269Z,25.47
2022-08-20T23:38:01.922Z,15.00
2022-08-20T23:40:31.154Z,13.77
2022-08-20T23:43:01.209Z,13.40
2022-08-20T23:45:30.143Z,15.73
2022-08-20T23:47:58.578Z,16.60
2022-08-20T23:50:30.108Z,14.57
2022-08-20T23:52:59.439Z,15.40
2022-08-20T23:55:28.158Z,16.90
2022-08-20T23:57:56.581Z,14.67
